<?xml version="1.0" encoding="UTF-8" standalone="no" ?>
<gpx xmlns="http://www.topografix.com/GPX/1/1" xmlns:xsi="http://www.w3.org/2001/XMLSchema-instance" xsi:schemaLocation="http://www.topografix.com/GPX/1/1 http://www.topografix.com/GPX/1/1/gpx.xsd" version="1.1" creator="VisuGPX - https://www.visugpx.com">
  <metadata>
    <name>Vers la gorge aux Loups</name>
    <desc><![CDATA[Rando Santé à la mare aux Fées, en passant par la gorge aux Loups.]]></desc>
  </metadata>
  <trk>
    <name><![CDATA[27 oct. 2015 09:31:39]]></name>
    <cmt><![CDATA[27 oct. 2015 09:31:39]]></cmt>
    <trkseg>
      <trkpt lat="48.35475" lon="2.7175">
        <ele>97</ele>
        <time>2015-10-27T08:31:39Z</time>
      </trkpt>
      <trkpt lat="48.35472" lon="2.71745">
        <ele>99</ele>
        <time>2015-10-27T08:31:44Z</time>
      </trkpt>
      <trkpt lat="48.35459" lon="2.71736">
        <ele>93</ele>
        <time>2015-10-27T08:32:00Z</time>
      </trkpt>
      <trkpt lat="48.35456" lon="2.7173">
        <ele>91</ele>
        <time>2015-10-27T08:32:05Z</time>
      </trkpt>
      <trkpt lat="48.35457" lon="2.71707">
        <ele>87</ele>
        <time>2015-10-27T08:32:19Z</time>
      </trkpt>
      <trkpt lat="48.3546" lon="2.71702">
        <ele>85</ele>
        <time>2015-10-27T08:32:24Z</time>
      </trkpt>
      <trkpt lat="48.35462" lon="2.71694">
        <ele>85</ele>
        <time>2015-10-27T08:32:37Z</time>
      </trkpt>
      <trkpt lat="48.35456" lon="2.71673">
        <ele>86</ele>
        <time>2015-10-27T08:32:47Z</time>
      </trkpt>
      <trkpt lat="48.35453" lon="2.71666">
        <ele>85</ele>
        <time>2015-10-27T08:32:51Z</time>
      </trkpt>
      <trkpt lat="48.35451" lon="2.7166">
        <ele>86</ele>
        <time>2015-10-27T08:32:55Z</time>
      </trkpt>
      <trkpt lat="48.35448" lon="2.71641">
        <ele>85</ele>
        <time>2015-10-27T08:33:06Z</time>
      </trkpt>
      <trkpt lat="48.35443" lon="2.71619">
        <ele>83</ele>
        <time>2015-10-27T08:33:23Z</time>
      </trkpt>
      <trkpt lat="48.35435" lon="2.71605">
        <ele>80</ele>
        <time>2015-10-27T08:33:36Z</time>
      </trkpt>
      <trkpt lat="48.35426" lon="2.71585">
        <ele>82</ele>
        <time>2015-10-27T08:33:48Z</time>
      </trkpt>
      <trkpt lat="48.35424" lon="2.71572">
        <ele>82</ele>
        <time>2015-10-27T08:33:57Z</time>
      </trkpt>
      <trkpt lat="48.35424" lon="2.71565">
        <ele>82</ele>
        <time>2015-10-27T08:34:02Z</time>
      </trkpt>
      <trkpt lat="48.35417" lon="2.71544">
        <ele>83</ele>
        <time>2015-10-27T08:34:14Z</time>
      </trkpt>
      <trkpt lat="48.35415" lon="2.71537">
        <ele>84</ele>
        <time>2015-10-27T08:34:18Z</time>
      </trkpt>
      <trkpt lat="48.35414" lon="2.71529">
        <ele>85</ele>
        <time>2015-10-27T08:34:22Z</time>
      </trkpt>
      <trkpt lat="48.35416" lon="2.71523">
        <ele>85</ele>
        <time>2015-10-27T08:34:27Z</time>
      </trkpt>
      <trkpt lat="48.35412" lon="2.7151">
        <ele>84</ele>
        <time>2015-10-27T08:34:39Z</time>
      </trkpt>
      <trkpt lat="48.35406" lon="2.71497">
        <ele>84</ele>
        <time>2015-10-27T08:34:44Z</time>
      </trkpt>
      <trkpt lat="48.35411" lon="2.71493">
        <ele>84</ele>
        <time>2015-10-27T08:34:50Z</time>
      </trkpt>
      <trkpt lat="48.35417" lon="2.71496">
        <ele>84</ele>
        <time>2015-10-27T08:34:54Z</time>
      </trkpt>
      <trkpt lat="48.35421" lon="2.71498">
        <ele>84</ele>
        <time>2015-10-27T08:34:59Z</time>
      </trkpt>
      <trkpt lat="48.35425" lon="2.71493">
        <ele>84</ele>
        <time>2015-10-27T08:35:06Z</time>
      </trkpt>
      <trkpt lat="48.35438" lon="2.71486">
        <ele>86</ele>
        <time>2015-10-27T08:35:26Z</time>
      </trkpt>
      <trkpt lat="48.35448" lon="2.71478">
        <ele>86</ele>
        <time>2015-10-27T08:35:40Z</time>
      </trkpt>
      <trkpt lat="48.35457" lon="2.71474">
        <ele>88</ele>
        <time>2015-10-27T08:35:50Z</time>
      </trkpt>
      <trkpt lat="48.35461" lon="2.71461">
        <ele>89</ele>
        <time>2015-10-27T08:35:59Z</time>
      </trkpt>
      <trkpt lat="48.35471" lon="2.71464">
        <ele>90</ele>
        <time>2015-10-27T08:36:11Z</time>
      </trkpt>
      <trkpt lat="48.3548" lon="2.71467">
        <ele>91</ele>
        <time>2015-10-27T08:36:26Z</time>
      </trkpt>
      <trkpt lat="48.35487" lon="2.71478">
        <ele>93</ele>
        <time>2015-10-27T08:36:42Z</time>
      </trkpt>
      <trkpt lat="48.35496" lon="2.71475">
        <ele>94</ele>
        <time>2015-10-27T08:36:50Z</time>
      </trkpt>
      <trkpt lat="48.35525" lon="2.71481">
        <ele>104</ele>
        <time>2015-10-27T08:37:32Z</time>
      </trkpt>
      <trkpt lat="48.35531" lon="2.7147">
        <ele>105</ele>
        <time>2015-10-27T08:37:44Z</time>
      </trkpt>
      <trkpt lat="48.35559" lon="2.71432">
        <ele>109</ele>
        <time>2015-10-27T08:38:21Z</time>
      </trkpt>
      <trkpt lat="48.35569" lon="2.71432">
        <ele>109</ele>
        <time>2015-10-27T08:38:32Z</time>
      </trkpt>
      <trkpt lat="48.35574" lon="2.71421">
        <ele>109</ele>
        <time>2015-10-27T08:38:49Z</time>
      </trkpt>
      <trkpt lat="48.35591" lon="2.71388">
        <ele>107</ele>
        <time>2015-10-27T08:39:25Z</time>
      </trkpt>
      <trkpt lat="48.35595" lon="2.71376">
        <ele>106</ele>
        <time>2015-10-27T08:39:39Z</time>
      </trkpt>
      <trkpt lat="48.35597" lon="2.71362">
        <ele>107</ele>
        <time>2015-10-27T08:39:50Z</time>
      </trkpt>
      <trkpt lat="48.35596" lon="2.71348">
        <ele>109</ele>
        <time>2015-10-27T08:40:08Z</time>
      </trkpt>
      <trkpt lat="48.35597" lon="2.71334">
        <ele>109</ele>
        <time>2015-10-27T08:40:23Z</time>
      </trkpt>
      <trkpt lat="48.35606" lon="2.71334">
        <ele>110</ele>
        <time>2015-10-27T08:40:35Z</time>
      </trkpt>
      <trkpt lat="48.35615" lon="2.71333">
        <ele>109</ele>
        <time>2015-10-27T08:40:47Z</time>
      </trkpt>
      <trkpt lat="48.35627" lon="2.71331">
        <ele>109</ele>
        <time>2015-10-27T08:41:11Z</time>
      </trkpt>
      <trkpt lat="48.35636" lon="2.71326">
        <ele>110</ele>
        <time>2015-10-27T08:41:29Z</time>
      </trkpt>
      <trkpt lat="48.35641" lon="2.71313">
        <ele>112</ele>
        <time>2015-10-27T08:41:44Z</time>
      </trkpt>
      <trkpt lat="48.35645" lon="2.71301">
        <ele>114</ele>
        <time>2015-10-27T08:41:56Z</time>
      </trkpt>
      <trkpt lat="48.35654" lon="2.71298">
        <ele>115</ele>
        <time>2015-10-27T08:42:11Z</time>
      </trkpt>
      <trkpt lat="48.35663" lon="2.71297">
        <ele>116</ele>
        <time>2015-10-27T08:42:30Z</time>
      </trkpt>
      <trkpt lat="48.35668" lon="2.71294">
        <ele>117</ele>
        <time>2015-10-27T08:42:41Z</time>
      </trkpt>
      <trkpt lat="48.35668" lon="2.71279">
        <ele>118</ele>
        <time>2015-10-27T08:42:54Z</time>
      </trkpt>
      <trkpt lat="48.35672" lon="2.71275">
        <ele>119</ele>
        <time>2015-10-27T08:43:01Z</time>
      </trkpt>
      <trkpt lat="48.35674" lon="2.71269">
        <ele>119</ele>
        <time>2015-10-27T08:43:08Z</time>
      </trkpt>
      <trkpt lat="48.35685" lon="2.71255">
        <ele>121</ele>
        <time>2015-10-27T08:43:32Z</time>
      </trkpt>
      <trkpt lat="48.35694" lon="2.7125">
        <ele>121</ele>
        <time>2015-10-27T08:43:43Z</time>
      </trkpt>
      <trkpt lat="48.35697" lon="2.71244">
        <ele>122</ele>
        <time>2015-10-27T08:43:48Z</time>
      </trkpt>
      <trkpt lat="48.35699" lon="2.71237">
        <ele>122</ele>
        <time>2015-10-27T08:43:54Z</time>
      </trkpt>
      <trkpt lat="48.35708" lon="2.71237">
        <ele>122</ele>
        <time>2015-10-27T08:44:01Z</time>
      </trkpt>
      <trkpt lat="48.35713" lon="2.71225">
        <ele>123</ele>
        <time>2015-10-27T08:44:10Z</time>
      </trkpt>
      <trkpt lat="48.35711" lon="2.71215">
        <ele>124</ele>
        <time>2015-10-27T08:44:27Z</time>
      </trkpt>
      <trkpt lat="48.3571" lon="2.71202">
        <ele>123</ele>
        <time>2015-10-27T08:45:39Z</time>
      </trkpt>
      <trkpt lat="48.35711" lon="2.71188">
        <ele>124</ele>
        <time>2015-10-27T08:45:50Z</time>
      </trkpt>
      <trkpt lat="48.35712" lon="2.71172">
        <ele>124</ele>
        <time>2015-10-27T08:46:00Z</time>
      </trkpt>
      <trkpt lat="48.35715" lon="2.71166">
        <ele>124</ele>
        <time>2015-10-27T08:46:06Z</time>
      </trkpt>
      <trkpt lat="48.35715" lon="2.71159">
        <ele>125</ele>
        <time>2015-10-27T08:46:10Z</time>
      </trkpt>
      <trkpt lat="48.35713" lon="2.7115">
        <ele>125</ele>
        <time>2015-10-27T08:46:16Z</time>
      </trkpt>
      <trkpt lat="48.35715" lon="2.71144">
        <ele>125</ele>
        <time>2015-10-27T08:46:22Z</time>
      </trkpt>
      <trkpt lat="48.35717" lon="2.71129">
        <ele>125</ele>
        <time>2015-10-27T08:46:32Z</time>
      </trkpt>
      <trkpt lat="48.35719" lon="2.71122">
        <ele>124</ele>
        <time>2015-10-27T08:46:37Z</time>
      </trkpt>
      <trkpt lat="48.35723" lon="2.71119">
        <ele>123</ele>
        <time>2015-10-27T08:46:43Z</time>
      </trkpt>
      <trkpt lat="48.35738" lon="2.7112">
        <ele>123</ele>
        <time>2015-10-27T08:46:58Z</time>
      </trkpt>
      <trkpt lat="48.35744" lon="2.7111">
        <ele>123</ele>
        <time>2015-10-27T08:47:06Z</time>
      </trkpt>
      <trkpt lat="48.35769" lon="2.71089">
        <ele>126</ele>
        <time>2015-10-27T08:47:32Z</time>
      </trkpt>
      <trkpt lat="48.35795" lon="2.71075">
        <ele>126</ele>
        <time>2015-10-27T08:47:58Z</time>
      </trkpt>
      <trkpt lat="48.35804" lon="2.71071">
        <ele>127</ele>
        <time>2015-10-27T08:48:08Z</time>
      </trkpt>
      <trkpt lat="48.35813" lon="2.71074">
        <ele>127</ele>
        <time>2015-10-27T08:48:21Z</time>
      </trkpt>
      <trkpt lat="48.35818" lon="2.71078">
        <ele>126</ele>
        <time>2015-10-27T08:48:34Z</time>
      </trkpt>
      <trkpt lat="48.3583" lon="2.71092">
        <ele>125</ele>
        <time>2015-10-27T08:49:06Z</time>
      </trkpt>
      <trkpt lat="48.35837" lon="2.71084">
        <ele>126</ele>
        <time>2015-10-27T08:49:22Z</time>
      </trkpt>
      <trkpt lat="48.35847" lon="2.71083">
        <ele>127</ele>
        <time>2015-10-27T08:49:35Z</time>
      </trkpt>
      <trkpt lat="48.35859" lon="2.71066">
        <ele>128</ele>
        <time>2015-10-27T08:50:03Z</time>
      </trkpt>
      <trkpt lat="48.3586" lon="2.71052">
        <ele>127</ele>
        <time>2015-10-27T08:50:17Z</time>
      </trkpt>
      <trkpt lat="48.35858" lon="2.71039">
        <ele>127</ele>
        <time>2015-10-27T08:50:31Z</time>
      </trkpt>
      <trkpt lat="48.35845" lon="2.70984">
        <ele>123</ele>
        <time>2015-10-27T08:51:08Z</time>
      </trkpt>
      <trkpt lat="48.35838" lon="2.70973">
        <ele>123</ele>
        <time>2015-10-27T08:51:18Z</time>
      </trkpt>
      <trkpt lat="48.35839" lon="2.70945">
        <ele>122</ele>
        <time>2015-10-27T08:51:41Z</time>
      </trkpt>
      <trkpt lat="48.35848" lon="2.70944">
        <ele>123</ele>
        <time>2015-10-27T08:51:51Z</time>
      </trkpt>
      <trkpt lat="48.35857" lon="2.70948">
        <ele>122</ele>
        <time>2015-10-27T08:51:59Z</time>
      </trkpt>
      <trkpt lat="48.35864" lon="2.7094">
        <ele>122</ele>
        <time>2015-10-27T08:52:07Z</time>
      </trkpt>
      <trkpt lat="48.35886" lon="2.70901">
        <ele>125</ele>
        <time>2015-10-27T08:52:39Z</time>
      </trkpt>
      <trkpt lat="48.35888" lon="2.70894">
        <ele>125</ele>
        <time>2015-10-27T08:52:44Z</time>
      </trkpt>
      <trkpt lat="48.359" lon="2.70845">
        <ele>128</ele>
        <time>2015-10-27T08:53:19Z</time>
      </trkpt>
      <trkpt lat="48.35919" lon="2.70804">
        <ele>130</ele>
        <time>2015-10-27T08:53:51Z</time>
      </trkpt>
      <trkpt lat="48.3595" lon="2.70786">
        <ele>128</ele>
        <time>2015-10-27T08:54:23Z</time>
      </trkpt>
      <trkpt lat="48.35955" lon="2.70785">
        <ele>128</ele>
        <time>2015-10-27T08:54:28Z</time>
      </trkpt>
      <trkpt lat="48.35964" lon="2.70778">
        <ele>130</ele>
        <time>2015-10-27T08:54:37Z</time>
      </trkpt>
      <trkpt lat="48.35965" lon="2.7077">
        <ele>131</ele>
        <time>2015-10-27T08:54:41Z</time>
      </trkpt>
      <trkpt lat="48.35967" lon="2.70763">
        <ele>131</ele>
        <time>2015-10-27T08:54:47Z</time>
      </trkpt>
      <trkpt lat="48.3597" lon="2.70757">
        <ele>131</ele>
        <time>2015-10-27T08:54:53Z</time>
      </trkpt>
      <trkpt lat="48.35992" lon="2.70741">
        <ele>133</ele>
        <time>2015-10-27T08:55:14Z</time>
      </trkpt>
      <trkpt lat="48.36" lon="2.70721">
        <ele>133</ele>
        <time>2015-10-27T08:55:31Z</time>
      </trkpt>
      <trkpt lat="48.36002" lon="2.70714">
        <ele>132</ele>
        <time>2015-10-27T08:55:38Z</time>
      </trkpt>
      <trkpt lat="48.36006" lon="2.70694">
        <ele>132</ele>
        <time>2015-10-27T08:55:54Z</time>
      </trkpt>
      <trkpt lat="48.35999" lon="2.70651">
        <ele>131</ele>
        <time>2015-10-27T08:56:22Z</time>
      </trkpt>
      <trkpt lat="48.35987" lon="2.70628">
        <ele>130</ele>
        <time>2015-10-27T08:56:40Z</time>
      </trkpt>
      <trkpt lat="48.35981" lon="2.706">
        <ele>131</ele>
        <time>2015-10-27T08:57:00Z</time>
      </trkpt>
      <trkpt lat="48.35977" lon="2.70587">
        <ele>132</ele>
        <time>2015-10-27T08:57:10Z</time>
      </trkpt>
      <trkpt lat="48.35976" lon="2.70573">
        <ele>132</ele>
        <time>2015-10-27T08:57:17Z</time>
      </trkpt>
      <trkpt lat="48.3598" lon="2.70518">
        <ele>130</ele>
        <time>2015-10-27T08:57:52Z</time>
      </trkpt>
      <trkpt lat="48.35991" lon="2.70462">
        <ele>131</ele>
        <time>2015-10-27T08:58:28Z</time>
      </trkpt>
      <trkpt lat="48.35993" lon="2.70447">
        <ele>131</ele>
        <time>2015-10-27T08:58:35Z</time>
      </trkpt>
      <trkpt lat="48.35999" lon="2.70435">
        <ele>131</ele>
        <time>2015-10-27T08:58:45Z</time>
      </trkpt>
      <trkpt lat="48.36012" lon="2.70416">
        <ele>133</ele>
        <time>2015-10-27T08:59:03Z</time>
      </trkpt>
      <trkpt lat="48.36021" lon="2.7039">
        <ele>133</ele>
        <time>2015-10-27T08:59:18Z</time>
      </trkpt>
      <trkpt lat="48.36038" lon="2.70337">
        <ele>135</ele>
        <time>2015-10-27T08:59:55Z</time>
      </trkpt>
      <trkpt lat="48.36037" lon="2.70322">
        <ele>136</ele>
        <time>2015-10-27T09:00:02Z</time>
      </trkpt>
      <trkpt lat="48.36043" lon="2.7031">
        <ele>136</ele>
        <time>2015-10-27T09:00:10Z</time>
      </trkpt>
      <trkpt lat="48.36047" lon="2.70297">
        <ele>135</ele>
        <time>2015-10-27T09:00:19Z</time>
      </trkpt>
      <trkpt lat="48.36056" lon="2.70296">
        <ele>134</ele>
        <time>2015-10-27T09:00:34Z</time>
      </trkpt>
      <trkpt lat="48.36065" lon="2.70285">
        <ele>131</ele>
        <time>2015-10-27T09:00:56Z</time>
      </trkpt>
      <trkpt lat="48.36076" lon="2.70263">
        <ele>134</ele>
        <time>2015-10-27T09:01:14Z</time>
      </trkpt>
      <trkpt lat="48.3608" lon="2.7025">
        <ele>135</ele>
        <time>2015-10-27T09:01:21Z</time>
      </trkpt>
      <trkpt lat="48.36085" lon="2.70239">
        <ele>136</ele>
        <time>2015-10-27T09:01:30Z</time>
      </trkpt>
      <trkpt lat="48.36091" lon="2.70228">
        <ele>137</ele>
        <time>2015-10-27T09:01:38Z</time>
      </trkpt>
      <trkpt lat="48.36104" lon="2.70208">
        <ele>136</ele>
        <time>2015-10-27T09:01:57Z</time>
      </trkpt>
      <trkpt lat="48.36121" lon="2.70196">
        <ele>137</ele>
        <time>2015-10-27T09:02:14Z</time>
      </trkpt>
      <trkpt lat="48.36131" lon="2.70194">
        <ele>137</ele>
        <time>2015-10-27T09:02:22Z</time>
      </trkpt>
      <trkpt lat="48.3614" lon="2.70197">
        <ele>137</ele>
        <time>2015-10-27T09:02:31Z</time>
      </trkpt>
      <trkpt lat="48.36143" lon="2.70203">
        <ele>137</ele>
        <time>2015-10-27T09:02:44Z</time>
      </trkpt>
      <trkpt lat="48.3614" lon="2.70214">
        <ele>136</ele>
        <time>2015-10-27T09:03:03Z</time>
      </trkpt>
      <trkpt lat="48.36145" lon="2.70229">
        <ele>131</ele>
        <time>2015-10-27T09:03:35Z</time>
      </trkpt>
      <trkpt lat="48.36144" lon="2.7023">
        <ele>127</ele>
        <time>2015-10-27T09:04:04Z</time>
      </trkpt>
      <trkpt lat="48.36145" lon="2.70237">
        <ele>126</ele>
        <time>2015-10-27T09:04:19Z</time>
      </trkpt>
      <trkpt lat="48.36143" lon="2.7024">
        <ele>124</ele>
        <time>2015-10-27T09:04:31Z</time>
      </trkpt>
      <trkpt lat="48.36144" lon="2.70246">
        <ele>121</ele>
        <time>2015-10-27T09:04:51Z</time>
      </trkpt>
      <trkpt lat="48.36146" lon="2.70273">
        <ele>117</ele>
        <time>2015-10-27T09:05:21Z</time>
      </trkpt>
      <trkpt lat="48.3615" lon="2.70307">
        <ele>115</ele>
        <time>2015-10-27T09:05:56Z</time>
      </trkpt>
      <trkpt lat="48.36152" lon="2.7032">
        <ele>114</ele>
        <time>2015-10-27T09:06:06Z</time>
      </trkpt>
      <trkpt lat="48.36156" lon="2.70375">
        <ele>114</ele>
        <time>2015-10-27T09:06:44Z</time>
      </trkpt>
      <trkpt lat="48.3616" lon="2.70387">
        <ele>114</ele>
        <time>2015-10-27T09:06:57Z</time>
      </trkpt>
      <trkpt lat="48.36156" lon="2.70399">
        <ele>113</ele>
        <time>2015-10-27T09:07:06Z</time>
      </trkpt>
      <trkpt lat="48.36158" lon="2.70413">
        <ele>112</ele>
        <time>2015-10-27T09:07:17Z</time>
      </trkpt>
      <trkpt lat="48.36156" lon="2.70426">
        <ele>112</ele>
        <time>2015-10-27T09:07:26Z</time>
      </trkpt>
      <trkpt lat="48.36157" lon="2.7044">
        <ele>112</ele>
        <time>2015-10-27T09:07:39Z</time>
      </trkpt>
      <trkpt lat="48.36157" lon="2.70475">
        <ele>108</ele>
        <time>2015-10-27T09:08:16Z</time>
      </trkpt>
      <trkpt lat="48.36152" lon="2.70487">
        <ele>108</ele>
        <time>2015-10-27T09:08:27Z</time>
      </trkpt>
      <trkpt lat="48.36156" lon="2.705">
        <ele>106</ele>
        <time>2015-10-27T09:08:42Z</time>
      </trkpt>
      <trkpt lat="48.36163" lon="2.7051">
        <ele>106</ele>
        <time>2015-10-27T09:08:58Z</time>
      </trkpt>
      <trkpt lat="48.3616" lon="2.70523">
        <ele>105</ele>
        <time>2015-10-27T09:09:16Z</time>
      </trkpt>
      <trkpt lat="48.36154" lon="2.70534">
        <ele>105</ele>
        <time>2015-10-27T09:09:28Z</time>
      </trkpt>
      <trkpt lat="48.36151" lon="2.70547">
        <ele>104</ele>
        <time>2015-10-27T09:09:40Z</time>
      </trkpt>
      <trkpt lat="48.36152" lon="2.70562">
        <ele>103</ele>
        <time>2015-10-27T09:10:02Z</time>
      </trkpt>
      <trkpt lat="48.36149" lon="2.70576">
        <ele>104</ele>
        <time>2015-10-27T09:10:24Z</time>
      </trkpt>
      <trkpt lat="48.36157" lon="2.70589">
        <ele>105</ele>
        <time>2015-10-27T09:10:46Z</time>
      </trkpt>
      <trkpt lat="48.36166" lon="2.70596">
        <ele>108</ele>
        <time>2015-10-27T09:11:54Z</time>
      </trkpt>
      <trkpt lat="48.36169" lon="2.70598">
        <ele>108</ele>
        <time>2015-10-27T09:12:06Z</time>
      </trkpt>
      <trkpt lat="48.36179" lon="2.70605">
        <ele>110</ele>
        <time>2015-10-27T09:12:25Z</time>
      </trkpt>
      <trkpt lat="48.36177" lon="2.70612">
        <ele>110</ele>
        <time>2015-10-27T09:12:41Z</time>
      </trkpt>
      <trkpt lat="48.36188" lon="2.70614">
        <ele>110</ele>
        <time>2015-10-27T09:12:55Z</time>
      </trkpt>
      <trkpt lat="48.36191" lon="2.70615">
        <ele>103</ele>
        <time>2015-10-27T09:14:03Z</time>
      </trkpt>
      <trkpt lat="48.36195" lon="2.70628">
        <ele>102</ele>
        <time>2015-10-27T09:14:17Z</time>
      </trkpt>
      <trkpt lat="48.36187" lon="2.70635">
        <ele>101</ele>
        <time>2015-10-27T09:14:31Z</time>
      </trkpt>
      <trkpt lat="48.3618" lon="2.70627">
        <ele>100</ele>
        <time>2015-10-27T09:14:46Z</time>
      </trkpt>
      <trkpt lat="48.3618" lon="2.70633">
        <ele>96</ele>
        <time>2015-10-27T09:15:36Z</time>
      </trkpt>
      <trkpt lat="48.36185" lon="2.70634">
        <ele>97</ele>
        <time>2015-10-27T09:15:41Z</time>
      </trkpt>
      <trkpt lat="48.36191" lon="2.70631">
        <ele>97</ele>
        <time>2015-10-27T09:15:45Z</time>
      </trkpt>
      <trkpt lat="48.36194" lon="2.70625">
        <ele>98</ele>
        <time>2015-10-27T09:15:49Z</time>
      </trkpt>
      <trkpt lat="48.36191" lon="2.70618">
        <ele>98</ele>
        <time>2015-10-27T09:15:54Z</time>
      </trkpt>
      <trkpt lat="48.36181" lon="2.70615">
        <ele>97</ele>
        <time>2015-10-27T09:16:01Z</time>
      </trkpt>
      <trkpt lat="48.36178" lon="2.70608">
        <ele>97</ele>
        <time>2015-10-27T09:16:05Z</time>
      </trkpt>
      <trkpt lat="48.36172" lon="2.70603">
        <ele>95</ele>
        <time>2015-10-27T09:16:18Z</time>
      </trkpt>
      <trkpt lat="48.36166" lon="2.70601">
        <ele>95</ele>
        <time>2015-10-27T09:16:23Z</time>
      </trkpt>
      <trkpt lat="48.36156" lon="2.70593">
        <ele>96</ele>
        <time>2015-10-27T09:16:33Z</time>
      </trkpt>
      <trkpt lat="48.36156" lon="2.70594">
        <ele>96</ele>
        <time>2015-10-27T09:16:43Z</time>
      </trkpt>
      <trkpt lat="48.36161" lon="2.70598">
        <ele>96</ele>
        <time>2015-10-27T09:16:46Z</time>
      </trkpt>
      <trkpt lat="48.36164" lon="2.70603">
        <ele>96</ele>
        <time>2015-10-27T09:16:50Z</time>
      </trkpt>
      <trkpt lat="48.36169" lon="2.70604">
        <ele>96</ele>
        <time>2015-10-27T09:16:57Z</time>
      </trkpt>
      <trkpt lat="48.36172" lon="2.7061">
        <ele>96</ele>
        <time>2015-10-27T09:17:02Z</time>
      </trkpt>
      <trkpt lat="48.36174" lon="2.70619">
        <ele>96</ele>
        <time>2015-10-27T09:17:07Z</time>
      </trkpt>
      <trkpt lat="48.36182" lon="2.70622">
        <ele>96</ele>
        <time>2015-10-27T09:17:14Z</time>
      </trkpt>
      <trkpt lat="48.36183" lon="2.70618">
        <ele>96</ele>
        <time>2015-10-27T09:17:25Z</time>
      </trkpt>
      <trkpt lat="48.36181" lon="2.70609">
        <ele>96</ele>
        <time>2015-10-27T09:17:37Z</time>
      </trkpt>
      <trkpt lat="48.36177" lon="2.70604">
        <ele>96</ele>
        <time>2015-10-27T09:17:41Z</time>
      </trkpt>
      <trkpt lat="48.36175" lon="2.70605">
        <ele>95</ele>
        <time>2015-10-27T09:17:47Z</time>
      </trkpt>
      <trkpt lat="48.3617" lon="2.70609">
        <ele>95</ele>
        <time>2015-10-27T09:17:54Z</time>
      </trkpt>
      <trkpt lat="48.36162" lon="2.70601">
        <ele>95</ele>
        <time>2015-10-27T09:18:06Z</time>
      </trkpt>
      <trkpt lat="48.36141" lon="2.70574">
        <ele>97</ele>
        <time>2015-10-27T09:18:43Z</time>
      </trkpt>
      <trkpt lat="48.36135" lon="2.70564">
        <ele>99</ele>
        <time>2015-10-27T09:18:57Z</time>
      </trkpt>
      <trkpt lat="48.36139" lon="2.70556">
        <ele>101</ele>
        <time>2015-10-27T09:19:17Z</time>
      </trkpt>
      <trkpt lat="48.36146" lon="2.70545">
        <ele>104</ele>
        <time>2015-10-27T09:19:39Z</time>
      </trkpt>
      <trkpt lat="48.36153" lon="2.70533">
        <ele>104</ele>
        <time>2015-10-27T09:20:05Z</time>
      </trkpt>
      <trkpt lat="48.3616" lon="2.70525">
        <ele>104</ele>
        <time>2015-10-27T09:20:30Z</time>
      </trkpt>
      <trkpt lat="48.36158" lon="2.70508">
        <ele>105</ele>
        <time>2015-10-27T09:20:48Z</time>
      </trkpt>
      <trkpt lat="48.36149" lon="2.70498">
        <ele>105</ele>
        <time>2015-10-27T09:21:03Z</time>
      </trkpt>
      <trkpt lat="48.36148" lon="2.70491">
        <ele>105</ele>
        <time>2015-10-27T09:21:09Z</time>
      </trkpt>
      <trkpt lat="48.3615" lon="2.70478">
        <ele>105</ele>
        <time>2015-10-27T09:21:22Z</time>
      </trkpt>
      <trkpt lat="48.36157" lon="2.70466">
        <ele>103</ele>
        <time>2015-10-27T09:21:41Z</time>
      </trkpt>
      <trkpt lat="48.36157" lon="2.70459">
        <ele>102</ele>
        <time>2015-10-27T09:21:45Z</time>
      </trkpt>
      <trkpt lat="48.36157" lon="2.70452">
        <ele>102</ele>
        <time>2015-10-27T09:21:49Z</time>
      </trkpt>
      <trkpt lat="48.36158" lon="2.70438">
        <ele>103</ele>
        <time>2015-10-27T09:21:58Z</time>
      </trkpt>
      <trkpt lat="48.36152" lon="2.70418">
        <ele>105</ele>
        <time>2015-10-27T09:22:15Z</time>
      </trkpt>
      <trkpt lat="48.36154" lon="2.70395">
        <ele>105</ele>
        <time>2015-10-27T09:22:35Z</time>
      </trkpt>
      <trkpt lat="48.36153" lon="2.70379">
        <ele>106</ele>
        <time>2015-10-27T09:22:42Z</time>
      </trkpt>
      <trkpt lat="48.36146" lon="2.70369">
        <ele>107</ele>
        <time>2015-10-27T09:22:53Z</time>
      </trkpt>
      <trkpt lat="48.36141" lon="2.7034">
        <ele>111</ele>
        <time>2015-10-27T09:23:20Z</time>
      </trkpt>
      <trkpt lat="48.36141" lon="2.70332">
        <ele>112</ele>
        <time>2015-10-27T09:23:32Z</time>
      </trkpt>
      <trkpt lat="48.36142" lon="2.70316">
        <ele>112</ele>
        <time>2015-10-27T09:23:57Z</time>
      </trkpt>
      <trkpt lat="48.36141" lon="2.703">
        <ele>113</ele>
        <time>2015-10-27T09:24:19Z</time>
      </trkpt>
      <trkpt lat="48.36143" lon="2.70288">
        <ele>113</ele>
        <time>2015-10-27T09:24:51Z</time>
      </trkpt>
      <trkpt lat="48.36138" lon="2.70275">
        <ele>115</ele>
        <time>2015-10-27T09:25:03Z</time>
      </trkpt>
      <trkpt lat="48.36139" lon="2.70268">
        <ele>117</ele>
        <time>2015-10-27T09:25:15Z</time>
      </trkpt>
      <trkpt lat="48.36137" lon="2.70289">
        <ele>117</ele>
        <time>2015-10-27T09:25:24Z</time>
      </trkpt>
      <trkpt lat="48.36147" lon="2.70284">
        <ele>116</ele>
        <time>2015-10-27T09:25:33Z</time>
      </trkpt>
      <trkpt lat="48.36139" lon="2.70274">
        <ele>116</ele>
        <time>2015-10-27T09:25:40Z</time>
      </trkpt>
      <trkpt lat="48.36136" lon="2.7026">
        <ele>117</ele>
        <time>2015-10-27T09:25:52Z</time>
      </trkpt>
      <trkpt lat="48.36137" lon="2.70252">
        <ele>117</ele>
        <time>2015-10-27T09:26:04Z</time>
      </trkpt>
      <trkpt lat="48.36136" lon="2.70238">
        <ele>119</ele>
        <time>2015-10-27T09:26:34Z</time>
      </trkpt>
      <trkpt lat="48.36135" lon="2.7023">
        <ele>123</ele>
        <time>2015-10-27T09:27:29Z</time>
      </trkpt>
      <trkpt lat="48.36131" lon="2.70216">
        <ele>123</ele>
        <time>2015-10-27T09:27:52Z</time>
      </trkpt>
      <trkpt lat="48.36136" lon="2.70205">
        <ele>124</ele>
        <time>2015-10-27T09:28:04Z</time>
      </trkpt>
      <trkpt lat="48.36136" lon="2.70193">
        <ele>130</ele>
        <time>2015-10-27T09:29:10Z</time>
      </trkpt>
      <trkpt lat="48.36135" lon="2.70197">
        <ele>133</ele>
        <time>2015-10-27T09:33:16Z</time>
      </trkpt>
      <trkpt lat="48.36146" lon="2.70193">
        <ele>133</ele>
        <time>2015-10-27T09:36:40Z</time>
      </trkpt>
      <trkpt lat="48.36164" lon="2.7019">
        <ele>133</ele>
        <time>2015-10-27T09:36:52Z</time>
      </trkpt>
      <trkpt lat="48.36173" lon="2.70185">
        <ele>133</ele>
        <time>2015-10-27T09:36:58Z</time>
      </trkpt>
      <trkpt lat="48.36201" lon="2.70181">
        <ele>135</ele>
        <time>2015-10-27T09:37:33Z</time>
      </trkpt>
      <trkpt lat="48.36237" lon="2.70182">
        <ele>136</ele>
        <time>2015-10-27T09:38:05Z</time>
      </trkpt>
      <trkpt lat="48.36256" lon="2.70184">
        <ele>134</ele>
        <time>2015-10-27T09:38:24Z</time>
      </trkpt>
      <trkpt lat="48.36275" lon="2.70181">
        <ele>134</ele>
        <time>2015-10-27T09:38:44Z</time>
      </trkpt>
      <trkpt lat="48.36313" lon="2.70174">
        <ele>132</ele>
        <time>2015-10-27T09:39:21Z</time>
      </trkpt>
      <trkpt lat="48.36351" lon="2.70172">
        <ele>130</ele>
        <time>2015-10-27T09:39:57Z</time>
      </trkpt>
      <trkpt lat="48.3637" lon="2.70173">
        <ele>129</ele>
        <time>2015-10-27T09:40:15Z</time>
      </trkpt>
      <trkpt lat="48.36389" lon="2.70174">
        <ele>129</ele>
        <time>2015-10-27T09:40:34Z</time>
      </trkpt>
      <trkpt lat="48.36404" lon="2.70174">
        <ele>131</ele>
        <time>2015-10-27T09:40:57Z</time>
      </trkpt>
      <trkpt lat="48.36423" lon="2.70171">
        <ele>129</ele>
        <time>2015-10-27T09:41:19Z</time>
      </trkpt>
      <trkpt lat="48.36457" lon="2.70174">
        <ele>127</ele>
        <time>2015-10-27T09:41:54Z</time>
      </trkpt>
      <trkpt lat="48.36461" lon="2.70178">
        <ele>127</ele>
        <time>2015-10-27T09:42:08Z</time>
      </trkpt>
      <trkpt lat="48.36485" lon="2.7017">
        <ele>125</ele>
        <time>2015-10-27T09:42:29Z</time>
      </trkpt>
      <trkpt lat="48.365" lon="2.7017">
        <ele>128</ele>
        <time>2015-10-27T09:42:42Z</time>
      </trkpt>
      <trkpt lat="48.36509" lon="2.70168">
        <ele>128</ele>
        <time>2015-10-27T09:42:50Z</time>
      </trkpt>
      <trkpt lat="48.36515" lon="2.70169">
        <ele>127</ele>
        <time>2015-10-27T09:42:55Z</time>
      </trkpt>
      <trkpt lat="48.3652" lon="2.7017">
        <ele>127</ele>
        <time>2015-10-27T09:43:00Z</time>
      </trkpt>
      <trkpt lat="48.36525" lon="2.70171">
        <ele>127</ele>
        <time>2015-10-27T09:43:04Z</time>
      </trkpt>
      <trkpt lat="48.3653" lon="2.70172">
        <ele>127</ele>
        <time>2015-10-27T09:43:09Z</time>
      </trkpt>
      <trkpt lat="48.36536" lon="2.70171">
        <ele>127</ele>
        <time>2015-10-27T09:43:13Z</time>
      </trkpt>
      <trkpt lat="48.36542" lon="2.70169">
        <ele>128</ele>
        <time>2015-10-27T09:43:17Z</time>
      </trkpt>
      <trkpt lat="48.36547" lon="2.7017">
        <ele>128</ele>
        <time>2015-10-27T09:43:23Z</time>
      </trkpt>
      <trkpt lat="48.36551" lon="2.70171">
        <ele>127</ele>
        <time>2015-10-27T09:43:28Z</time>
      </trkpt>
      <trkpt lat="48.36567" lon="2.7017">
        <ele>123</ele>
        <time>2015-10-27T09:43:44Z</time>
      </trkpt>
      <trkpt lat="48.36572" lon="2.7017">
        <ele>123</ele>
        <time>2015-10-27T09:43:49Z</time>
      </trkpt>
      <trkpt lat="48.36576" lon="2.70169">
        <ele>122</ele>
        <time>2015-10-27T09:43:53Z</time>
      </trkpt>
      <trkpt lat="48.36581" lon="2.70166">
        <ele>122</ele>
        <time>2015-10-27T09:43:57Z</time>
      </trkpt>
      <trkpt lat="48.36586" lon="2.70165">
        <ele>122</ele>
        <time>2015-10-27T09:44:01Z</time>
      </trkpt>
      <trkpt lat="48.36601" lon="2.7016">
        <ele>122</ele>
        <time>2015-10-27T09:44:14Z</time>
      </trkpt>
      <trkpt lat="48.36631" lon="2.70159">
        <ele>125</ele>
        <time>2015-10-27T09:44:38Z</time>
      </trkpt>
      <trkpt lat="48.36635" lon="2.70161">
        <ele>125</ele>
        <time>2015-10-27T09:44:44Z</time>
      </trkpt>
      <trkpt lat="48.36645" lon="2.70161">
        <ele>124</ele>
        <time>2015-10-27T09:44:54Z</time>
      </trkpt>
      <trkpt lat="48.36649" lon="2.70161">
        <ele>125</ele>
        <time>2015-10-27T09:45:00Z</time>
      </trkpt>
      <trkpt lat="48.36667" lon="2.70161">
        <ele>124</ele>
        <time>2015-10-27T09:45:16Z</time>
      </trkpt>
      <trkpt lat="48.36687" lon="2.70161">
        <ele>126</ele>
        <time>2015-10-27T09:45:34Z</time>
      </trkpt>
      <trkpt lat="48.36692" lon="2.70161">
        <ele>126</ele>
        <time>2015-10-27T09:45:39Z</time>
      </trkpt>
      <trkpt lat="48.36702" lon="2.70159">
        <ele>127</ele>
        <time>2015-10-27T09:45:47Z</time>
      </trkpt>
      <trkpt lat="48.36737" lon="2.70158">
        <ele>122</ele>
        <time>2015-10-27T09:46:22Z</time>
      </trkpt>
      <trkpt lat="48.36757" lon="2.70155">
        <ele>120</ele>
        <time>2015-10-27T09:46:40Z</time>
      </trkpt>
      <trkpt lat="48.36763" lon="2.70155">
        <ele>120</ele>
        <time>2015-10-27T09:46:44Z</time>
      </trkpt>
      <trkpt lat="48.36773" lon="2.70154">
        <ele>119</ele>
        <time>2015-10-27T09:46:54Z</time>
      </trkpt>
      <trkpt lat="48.36778" lon="2.70153">
        <ele>119</ele>
        <time>2015-10-27T09:46:58Z</time>
      </trkpt>
      <trkpt lat="48.36792" lon="2.70153">
        <ele>117</ele>
        <time>2015-10-27T09:47:08Z</time>
      </trkpt>
      <trkpt lat="48.36797" lon="2.70152">
        <ele>117</ele>
        <time>2015-10-27T09:47:13Z</time>
      </trkpt>
      <trkpt lat="48.36803" lon="2.70151">
        <ele>118</ele>
        <time>2015-10-27T09:47:17Z</time>
      </trkpt>
      <trkpt lat="48.36803" lon="2.7015">
        <ele>119</ele>
        <time>2015-10-27T09:47:33Z</time>
      </trkpt>
      <trkpt lat="48.36808" lon="2.70154">
        <ele>119</ele>
        <time>2015-10-27T09:48:20Z</time>
      </trkpt>
      <trkpt lat="48.36807" lon="2.70176">
        <ele>119</ele>
        <time>2015-10-27T09:48:31Z</time>
      </trkpt>
      <trkpt lat="48.36808" lon="2.70183">
        <ele>120</ele>
        <time>2015-10-27T09:48:34Z</time>
      </trkpt>
      <trkpt lat="48.36808" lon="2.70191">
        <ele>120</ele>
        <time>2015-10-27T09:48:37Z</time>
      </trkpt>
      <trkpt lat="48.36806" lon="2.70224">
        <ele>121</ele>
        <time>2015-10-27T09:48:53Z</time>
      </trkpt>
      <trkpt lat="48.36804" lon="2.70229">
        <ele>121</ele>
        <time>2015-10-27T09:48:55Z</time>
      </trkpt>
      <trkpt lat="48.36803" lon="2.70235">
        <ele>121</ele>
        <time>2015-10-27T09:49:00Z</time>
      </trkpt>
      <trkpt lat="48.36804" lon="2.70243">
        <ele>121</ele>
        <time>2015-10-27T09:49:04Z</time>
      </trkpt>
      <trkpt lat="48.36805" lon="2.70278">
        <ele>123</ele>
        <time>2015-10-27T09:49:20Z</time>
      </trkpt>
      <trkpt lat="48.36802" lon="2.70303">
        <ele>122</ele>
        <time>2015-10-27T09:49:32Z</time>
      </trkpt>
      <trkpt lat="48.368" lon="2.70353">
        <ele>123</ele>
        <time>2015-10-27T09:49:57Z</time>
      </trkpt>
      <trkpt lat="48.36798" lon="2.70374">
        <ele>125</ele>
        <time>2015-10-27T09:50:11Z</time>
      </trkpt>
      <trkpt lat="48.36801" lon="2.70382">
        <ele>126</ele>
        <time>2015-10-27T09:50:16Z</time>
      </trkpt>
      <trkpt lat="48.36791" lon="2.70442">
        <ele>129</ele>
        <time>2015-10-27T09:50:47Z</time>
      </trkpt>
      <trkpt lat="48.3679" lon="2.70458">
        <ele>128</ele>
        <time>2015-10-27T09:50:57Z</time>
      </trkpt>
      <trkpt lat="48.36789" lon="2.70481">
        <ele>127</ele>
        <time>2015-10-27T09:51:12Z</time>
      </trkpt>
      <trkpt lat="48.36788" lon="2.70495">
        <ele>126</ele>
        <time>2015-10-27T09:51:21Z</time>
      </trkpt>
      <trkpt lat="48.36785" lon="2.70509">
        <ele>127</ele>
        <time>2015-10-27T09:51:31Z</time>
      </trkpt>
      <trkpt lat="48.36783" lon="2.70538">
        <ele>127</ele>
        <time>2015-10-27T09:51:50Z</time>
      </trkpt>
      <trkpt lat="48.36783" lon="2.70546">
        <ele>127</ele>
        <time>2015-10-27T09:51:55Z</time>
      </trkpt>
      <trkpt lat="48.36782" lon="2.7056">
        <ele>127</ele>
        <time>2015-10-27T09:52:04Z</time>
      </trkpt>
      <trkpt lat="48.36779" lon="2.70576">
        <ele>127</ele>
        <time>2015-10-27T09:52:12Z</time>
      </trkpt>
      <trkpt lat="48.36777" lon="2.70598">
        <ele>127</ele>
        <time>2015-10-27T09:52:22Z</time>
      </trkpt>
      <trkpt lat="48.36778" lon="2.7061">
        <ele>127</ele>
        <time>2015-10-27T09:52:29Z</time>
      </trkpt>
      <trkpt lat="48.36774" lon="2.70628">
        <ele>130</ele>
        <time>2015-10-27T09:52:46Z</time>
      </trkpt>
      <trkpt lat="48.36775" lon="2.70649">
        <ele>131</ele>
        <time>2015-10-27T09:53:03Z</time>
      </trkpt>
      <trkpt lat="48.36775" lon="2.70687">
        <ele>127</ele>
        <time>2015-10-27T09:53:30Z</time>
      </trkpt>
      <trkpt lat="48.36772" lon="2.70693">
        <ele>126</ele>
        <time>2015-10-27T09:53:34Z</time>
      </trkpt>
      <trkpt lat="48.36772" lon="2.70701">
        <ele>126</ele>
        <time>2015-10-27T09:53:40Z</time>
      </trkpt>
      <trkpt lat="48.3677" lon="2.70715">
        <ele>125</ele>
        <time>2015-10-27T09:53:52Z</time>
      </trkpt>
      <trkpt lat="48.36769" lon="2.70731">
        <ele>126</ele>
        <time>2015-10-27T09:54:11Z</time>
      </trkpt>
      <trkpt lat="48.36771" lon="2.70774">
        <ele>123</ele>
        <time>2015-10-27T09:54:46Z</time>
      </trkpt>
      <trkpt lat="48.3677" lon="2.70801">
        <ele>121</ele>
        <time>2015-10-27T09:55:04Z</time>
      </trkpt>
      <trkpt lat="48.36769" lon="2.70816">
        <ele>121</ele>
        <time>2015-10-27T09:55:12Z</time>
      </trkpt>
      <trkpt lat="48.36767" lon="2.70829">
        <ele>121</ele>
        <time>2015-10-27T09:55:20Z</time>
      </trkpt>
      <trkpt lat="48.36761" lon="2.70872">
        <ele>116</ele>
        <time>2015-10-27T09:55:50Z</time>
      </trkpt>
      <trkpt lat="48.36762" lon="2.70887">
        <ele>116</ele>
        <time>2015-10-27T09:55:59Z</time>
      </trkpt>
      <trkpt lat="48.36758" lon="2.7093">
        <ele>112</ele>
        <time>2015-10-27T09:56:30Z</time>
      </trkpt>
      <trkpt lat="48.36758" lon="2.70946">
        <ele>113</ele>
        <time>2015-10-27T09:56:41Z</time>
      </trkpt>
      <trkpt lat="48.36753" lon="2.70958">
        <ele>113</ele>
        <time>2015-10-27T09:56:50Z</time>
      </trkpt>
      <trkpt lat="48.36745" lon="2.70964">
        <ele>112</ele>
        <time>2015-10-27T09:57:03Z</time>
      </trkpt>
      <trkpt lat="48.36735" lon="2.70962">
        <ele>109</ele>
        <time>2015-10-27T09:57:14Z</time>
      </trkpt>
      <trkpt lat="48.36707" lon="2.70959">
        <ele>108</ele>
        <time>2015-10-27T09:57:42Z</time>
      </trkpt>
      <trkpt lat="48.36697" lon="2.70962">
        <ele>108</ele>
        <time>2015-10-27T09:57:50Z</time>
      </trkpt>
      <trkpt lat="48.36678" lon="2.70959">
        <ele>108</ele>
        <time>2015-10-27T09:58:10Z</time>
      </trkpt>
      <trkpt lat="48.36668" lon="2.70961">
        <ele>109</ele>
        <time>2015-10-27T09:58:19Z</time>
      </trkpt>
      <trkpt lat="48.36659" lon="2.7096">
        <ele>111</ele>
        <time>2015-10-27T09:58:28Z</time>
      </trkpt>
      <trkpt lat="48.36631" lon="2.70958">
        <ele>112</ele>
        <time>2015-10-27T09:59:02Z</time>
      </trkpt>
      <trkpt lat="48.36622" lon="2.70962">
        <ele>112</ele>
        <time>2015-10-27T09:59:09Z</time>
      </trkpt>
      <trkpt lat="48.36613" lon="2.70958">
        <ele>112</ele>
        <time>2015-10-27T09:59:24Z</time>
      </trkpt>
      <trkpt lat="48.36603" lon="2.70956">
        <ele>112</ele>
        <time>2015-10-27T09:59:36Z</time>
      </trkpt>
      <trkpt lat="48.36595" lon="2.70958">
        <ele>112</ele>
        <time>2015-10-27T09:59:56Z</time>
      </trkpt>
      <trkpt lat="48.36585" lon="2.70959">
        <ele>114</ele>
        <time>2015-10-27T10:00:17Z</time>
      </trkpt>
      <trkpt lat="48.3658" lon="2.70955">
        <ele>114</ele>
        <time>2015-10-27T10:00:22Z</time>
      </trkpt>
      <trkpt lat="48.36576" lon="2.70956">
        <ele>115</ele>
        <time>2015-10-27T10:00:31Z</time>
      </trkpt>
      <trkpt lat="48.36571" lon="2.70957">
        <ele>114</ele>
        <time>2015-10-27T10:00:39Z</time>
      </trkpt>
      <trkpt lat="48.36566" lon="2.7096">
        <ele>114</ele>
        <time>2015-10-27T10:00:53Z</time>
      </trkpt>
      <trkpt lat="48.36563" lon="2.7096">
        <ele>114</ele>
        <time>2015-10-27T10:00:59Z</time>
      </trkpt>
      <trkpt lat="48.36557" lon="2.70961">
        <ele>115</ele>
        <time>2015-10-27T10:01:15Z</time>
      </trkpt>
      <trkpt lat="48.36552" lon="2.70958">
        <ele>114</ele>
        <time>2015-10-27T10:01:20Z</time>
      </trkpt>
      <trkpt lat="48.36548" lon="2.70955">
        <ele>114</ele>
        <time>2015-10-27T10:01:24Z</time>
      </trkpt>
      <trkpt lat="48.36536" lon="2.70958">
        <ele>115</ele>
        <time>2015-10-27T10:01:40Z</time>
      </trkpt>
      <trkpt lat="48.36522" lon="2.70963">
        <ele>116</ele>
        <time>2015-10-27T10:01:55Z</time>
      </trkpt>
      <trkpt lat="48.36508" lon="2.70958">
        <ele>118</ele>
        <time>2015-10-27T10:02:09Z</time>
      </trkpt>
      <trkpt lat="48.36499" lon="2.70962">
        <ele>119</ele>
        <time>2015-10-27T10:02:17Z</time>
      </trkpt>
      <trkpt lat="48.36474" lon="2.70946">
        <ele>120</ele>
        <time>2015-10-27T10:02:45Z</time>
      </trkpt>
      <trkpt lat="48.36443" lon="2.70917">
        <ele>120</ele>
        <time>2015-10-27T10:03:22Z</time>
      </trkpt>
      <trkpt lat="48.36434" lon="2.70922">
        <ele>120</ele>
        <time>2015-10-27T10:03:39Z</time>
      </trkpt>
      <trkpt lat="48.36429" lon="2.70934">
        <ele>118</ele>
        <time>2015-10-27T10:03:52Z</time>
      </trkpt>
      <trkpt lat="48.36411" lon="2.70953">
        <ele>117</ele>
        <time>2015-10-27T10:04:33Z</time>
      </trkpt>
      <trkpt lat="48.364" lon="2.70975">
        <ele>119</ele>
        <time>2015-10-27T10:04:59Z</time>
      </trkpt>
      <trkpt lat="48.36396" lon="2.7098">
        <ele>119</ele>
        <time>2015-10-27T10:05:06Z</time>
      </trkpt>
      <trkpt lat="48.36384" lon="2.71007">
        <ele>115</ele>
        <time>2015-10-27T10:05:39Z</time>
      </trkpt>
      <trkpt lat="48.36367" lon="2.71026">
        <ele>111</ele>
        <time>2015-10-27T10:06:00Z</time>
      </trkpt>
      <trkpt lat="48.36342" lon="2.71066">
        <ele>110</ele>
        <time>2015-10-27T10:06:33Z</time>
      </trkpt>
      <trkpt lat="48.36322" lon="2.71117">
        <ele>110</ele>
        <time>2015-10-27T10:07:10Z</time>
      </trkpt>
      <trkpt lat="48.36319" lon="2.7113">
        <ele>108</ele>
        <time>2015-10-27T10:07:21Z</time>
      </trkpt>
      <trkpt lat="48.36304" lon="2.7115">
        <ele>106</ele>
        <time>2015-10-27T10:07:34Z</time>
      </trkpt>
      <trkpt lat="48.36296" lon="2.71156">
        <ele>105</ele>
        <time>2015-10-27T10:07:47Z</time>
      </trkpt>
      <trkpt lat="48.3627" lon="2.71201">
        <ele>103</ele>
        <time>2015-10-27T10:08:22Z</time>
      </trkpt>
      <trkpt lat="48.36262" lon="2.71207">
        <ele>103</ele>
        <time>2015-10-27T10:08:30Z</time>
      </trkpt>
      <trkpt lat="48.36247" lon="2.71228">
        <ele>103</ele>
        <time>2015-10-27T10:08:53Z</time>
      </trkpt>
      <trkpt lat="48.36242" lon="2.7124">
        <ele>104</ele>
        <time>2015-10-27T10:08:59Z</time>
      </trkpt>
      <trkpt lat="48.36226" lon="2.71256">
        <ele>99</ele>
        <time>2015-10-27T10:09:25Z</time>
      </trkpt>
      <trkpt lat="48.36215" lon="2.71262">
        <ele>99</ele>
        <time>2015-10-27T10:09:43Z</time>
      </trkpt>
      <trkpt lat="48.36214" lon="2.71248">
        <ele>98</ele>
        <time>2015-10-27T10:09:55Z</time>
      </trkpt>
      <trkpt lat="48.36213" lon="2.71193">
        <ele>92</ele>
        <time>2015-10-27T10:10:31Z</time>
      </trkpt>
      <trkpt lat="48.3621" lon="2.71179">
        <ele>91</ele>
        <time>2015-10-27T10:10:40Z</time>
      </trkpt>
      <trkpt lat="48.36206" lon="2.71168">
        <ele>91</ele>
        <time>2015-10-27T10:10:46Z</time>
      </trkpt>
      <trkpt lat="48.36203" lon="2.71153">
        <ele>92</ele>
        <time>2015-10-27T10:10:53Z</time>
      </trkpt>
      <trkpt lat="48.36193" lon="2.7109">
        <ele>92</ele>
        <time>2015-10-27T10:11:32Z</time>
      </trkpt>
      <trkpt lat="48.36188" lon="2.71076">
        <ele>92</ele>
        <time>2015-10-27T10:11:47Z</time>
      </trkpt>
      <trkpt lat="48.3619" lon="2.71061">
        <ele>92</ele>
        <time>2015-10-27T10:11:52Z</time>
      </trkpt>
      <trkpt lat="48.36193" lon="2.71048">
        <ele>92</ele>
        <time>2015-10-27T10:11:58Z</time>
      </trkpt>
      <trkpt lat="48.36191" lon="2.71034">
        <ele>92</ele>
        <time>2015-10-27T10:12:06Z</time>
      </trkpt>
      <trkpt lat="48.36187" lon="2.7102">
        <ele>92</ele>
        <time>2015-10-27T10:12:26Z</time>
      </trkpt>
      <trkpt lat="48.36182" lon="2.70993">
        <ele>93</ele>
        <time>2015-10-27T10:12:37Z</time>
      </trkpt>
      <trkpt lat="48.36178" lon="2.7098">
        <ele>94</ele>
        <time>2015-10-27T10:12:44Z</time>
      </trkpt>
      <trkpt lat="48.36178" lon="2.70966">
        <ele>96</ele>
        <time>2015-10-27T10:12:53Z</time>
      </trkpt>
      <trkpt lat="48.36175" lon="2.70952">
        <ele>96</ele>
        <time>2015-10-27T10:13:02Z</time>
      </trkpt>
      <trkpt lat="48.36166" lon="2.70949">
        <ele>96</ele>
        <time>2015-10-27T10:13:08Z</time>
      </trkpt>
      <trkpt lat="48.36129" lon="2.70953">
        <ele>98</ele>
        <time>2015-10-27T10:13:41Z</time>
      </trkpt>
      <trkpt lat="48.3612" lon="2.70954">
        <ele>97</ele>
        <time>2015-10-27T10:13:50Z</time>
      </trkpt>
      <trkpt lat="48.361" lon="2.70952">
        <ele>98</ele>
        <time>2015-10-27T10:14:11Z</time>
      </trkpt>
      <trkpt lat="48.36092" lon="2.70959">
        <ele>98</ele>
        <time>2015-10-27T10:14:21Z</time>
      </trkpt>
      <trkpt lat="48.36082" lon="2.70965">
        <ele>100</ele>
        <time>2015-10-27T10:14:37Z</time>
      </trkpt>
      <trkpt lat="48.36074" lon="2.70972">
        <ele>101</ele>
        <time>2015-10-27T10:14:49Z</time>
      </trkpt>
      <trkpt lat="48.3607" lon="2.70964">
        <ele>102</ele>
        <time>2015-10-27T10:15:25Z</time>
      </trkpt>
      <trkpt lat="48.36061" lon="2.70966">
        <ele>100</ele>
        <time>2015-10-27T10:16:02Z</time>
      </trkpt>
      <trkpt lat="48.36056" lon="2.70984">
        <ele>100</ele>
        <time>2015-10-27T10:18:16Z</time>
      </trkpt>
      <trkpt lat="48.36026" lon="2.71017">
        <ele>103</ele>
        <time>2015-10-27T10:18:55Z</time>
      </trkpt>
      <trkpt lat="48.36021" lon="2.71007">
        <ele>103</ele>
        <time>2015-10-27T10:19:07Z</time>
      </trkpt>
      <trkpt lat="48.36016" lon="2.71007">
        <ele>104</ele>
        <time>2015-10-27T10:19:39Z</time>
      </trkpt>
      <trkpt lat="48.36011" lon="2.71005">
        <ele>103</ele>
        <time>2015-10-27T10:20:02Z</time>
      </trkpt>
      <trkpt lat="48.36007" lon="2.71">
        <ele>105</ele>
        <time>2015-10-27T10:20:34Z</time>
      </trkpt>
      <trkpt lat="48.35998" lon="2.70999">
        <ele>106</ele>
        <time>2015-10-27T10:20:51Z</time>
      </trkpt>
      <trkpt lat="48.35989" lon="2.71003">
        <ele>106</ele>
        <time>2015-10-27T10:21:05Z</time>
      </trkpt>
      <trkpt lat="48.35986" lon="2.70991">
        <ele>106</ele>
        <time>2015-10-27T10:21:40Z</time>
      </trkpt>
      <trkpt lat="48.3598" lon="2.70981">
        <ele>106</ele>
        <time>2015-10-27T10:21:49Z</time>
      </trkpt>
      <trkpt lat="48.35971" lon="2.70976">
        <ele>106</ele>
        <time>2015-10-27T10:22:01Z</time>
      </trkpt>
      <trkpt lat="48.35967" lon="2.70963">
        <ele>107</ele>
        <time>2015-10-27T10:22:21Z</time>
      </trkpt>
      <trkpt lat="48.35964" lon="2.70947">
        <ele>108</ele>
        <time>2015-10-27T10:22:40Z</time>
      </trkpt>
      <trkpt lat="48.35959" lon="2.70937">
        <ele>109</ele>
        <time>2015-10-27T10:22:57Z</time>
      </trkpt>
      <trkpt lat="48.35953" lon="2.70926">
        <ele>108</ele>
        <time>2015-10-27T10:23:15Z</time>
      </trkpt>
      <trkpt lat="48.35949" lon="2.70927">
        <ele>110</ele>
        <time>2015-10-27T10:23:48Z</time>
      </trkpt>
      <trkpt lat="48.35947" lon="2.70925">
        <ele>112</ele>
        <time>2015-10-27T10:24:28Z</time>
      </trkpt>
      <trkpt lat="48.35949" lon="2.7092">
        <ele>112</ele>
        <time>2015-10-27T10:24:37Z</time>
      </trkpt>
      <trkpt lat="48.35946" lon="2.70917">
        <ele>112</ele>
        <time>2015-10-27T10:24:45Z</time>
      </trkpt>
      <trkpt lat="48.35945" lon="2.70911">
        <ele>113</ele>
        <time>2015-10-27T10:24:57Z</time>
      </trkpt>
      <trkpt lat="48.35941" lon="2.70912">
        <ele>114</ele>
        <time>2015-10-27T10:25:11Z</time>
      </trkpt>
      <trkpt lat="48.35931" lon="2.70913">
        <ele>115</ele>
        <time>2015-10-27T10:25:34Z</time>
      </trkpt>
      <trkpt lat="48.35927" lon="2.70915">
        <ele>117</ele>
        <time>2015-10-27T10:25:50Z</time>
      </trkpt>
      <trkpt lat="48.35925" lon="2.70924">
        <ele>119</ele>
        <time>2015-10-27T10:26:14Z</time>
      </trkpt>
      <trkpt lat="48.35917" lon="2.70932">
        <ele>120</ele>
        <time>2015-10-27T10:26:44Z</time>
      </trkpt>
      <trkpt lat="48.35908" lon="2.70932">
        <ele>118</ele>
        <time>2015-10-27T10:27:14Z</time>
      </trkpt>
      <trkpt lat="48.35899" lon="2.70935">
        <ele>117</ele>
        <time>2015-10-27T10:27:30Z</time>
      </trkpt>
      <trkpt lat="48.3589" lon="2.70936">
        <ele>118</ele>
        <time>2015-10-27T10:27:44Z</time>
      </trkpt>
      <trkpt lat="48.35881" lon="2.70931">
        <ele>118</ele>
        <time>2015-10-27T10:27:55Z</time>
      </trkpt>
      <trkpt lat="48.35872" lon="2.70935">
        <ele>118</ele>
        <time>2015-10-27T10:28:02Z</time>
      </trkpt>
      <trkpt lat="48.35862" lon="2.7094">
        <ele>119</ele>
        <time>2015-10-27T10:28:11Z</time>
      </trkpt>
      <trkpt lat="48.35843" lon="2.70943">
        <ele>119</ele>
        <time>2015-10-27T10:28:30Z</time>
      </trkpt>
      <trkpt lat="48.35815" lon="2.70944">
        <ele>118</ele>
        <time>2015-10-27T10:28:59Z</time>
      </trkpt>
      <trkpt lat="48.35801" lon="2.70944">
        <ele>120</ele>
        <time>2015-10-27T10:29:12Z</time>
      </trkpt>
      <trkpt lat="48.35799" lon="2.70946">
        <ele>121</ele>
        <time>2015-10-27T10:29:23Z</time>
      </trkpt>
      <trkpt lat="48.35797" lon="2.70953">
        <ele>122</ele>
        <time>2015-10-27T10:29:32Z</time>
      </trkpt>
      <trkpt lat="48.35795" lon="2.70959">
        <ele>122</ele>
        <time>2015-10-27T10:29:37Z</time>
      </trkpt>
      <trkpt lat="48.35798" lon="2.70973">
        <ele>122</ele>
        <time>2015-10-27T10:29:47Z</time>
      </trkpt>
      <trkpt lat="48.35799" lon="2.70981">
        <ele>121</ele>
        <time>2015-10-27T10:29:52Z</time>
      </trkpt>
      <trkpt lat="48.35797" lon="2.71004">
        <ele>122</ele>
        <time>2015-10-27T10:30:06Z</time>
      </trkpt>
      <trkpt lat="48.35801" lon="2.71017">
        <ele>122</ele>
        <time>2015-10-27T10:30:15Z</time>
      </trkpt>
      <trkpt lat="48.35796" lon="2.7103">
        <ele>122</ele>
        <time>2015-10-27T10:30:22Z</time>
      </trkpt>
      <trkpt lat="48.35796" lon="2.71044">
        <ele>122</ele>
        <time>2015-10-27T10:30:31Z</time>
      </trkpt>
      <trkpt lat="48.358" lon="2.71057">
        <ele>123</ele>
        <time>2015-10-27T10:30:42Z</time>
      </trkpt>
      <trkpt lat="48.35798" lon="2.71071">
        <ele>123</ele>
        <time>2015-10-27T10:30:53Z</time>
      </trkpt>
      <trkpt lat="48.35789" lon="2.71075">
        <ele>122</ele>
        <time>2015-10-27T10:31:01Z</time>
      </trkpt>
      <trkpt lat="48.35765" lon="2.71097">
        <ele>124</ele>
        <time>2015-10-27T10:31:30Z</time>
      </trkpt>
      <trkpt lat="48.35747" lon="2.71107">
        <ele>122</ele>
        <time>2015-10-27T10:31:49Z</time>
      </trkpt>
      <trkpt lat="48.35738" lon="2.71111">
        <ele>123</ele>
        <time>2015-10-27T10:31:58Z</time>
      </trkpt>
      <trkpt lat="48.35729" lon="2.71114">
        <ele>122</ele>
        <time>2015-10-27T10:32:08Z</time>
      </trkpt>
      <trkpt lat="48.3572" lon="2.71118">
        <ele>121</ele>
        <time>2015-10-27T10:32:18Z</time>
      </trkpt>
      <trkpt lat="48.35714" lon="2.7113">
        <ele>121</ele>
        <time>2015-10-27T10:32:25Z</time>
      </trkpt>
      <trkpt lat="48.35715" lon="2.71144">
        <ele>121</ele>
        <time>2015-10-27T10:32:35Z</time>
      </trkpt>
      <trkpt lat="48.35711" lon="2.71185">
        <ele>124</ele>
        <time>2015-10-27T10:33:10Z</time>
      </trkpt>
      <trkpt lat="48.3571" lon="2.71199">
        <ele>125</ele>
        <time>2015-10-27T10:33:20Z</time>
      </trkpt>
      <trkpt lat="48.35712" lon="2.71213">
        <ele>126</ele>
        <time>2015-10-27T10:33:29Z</time>
      </trkpt>
      <trkpt lat="48.35708" lon="2.71225">
        <ele>126</ele>
        <time>2015-10-27T10:33:38Z</time>
      </trkpt>
      <trkpt lat="48.35687" lon="2.71254">
        <ele>124</ele>
        <time>2015-10-27T10:34:10Z</time>
      </trkpt>
      <trkpt lat="48.35679" lon="2.71259">
        <ele>124</ele>
        <time>2015-10-27T10:34:25Z</time>
      </trkpt>
      <trkpt lat="48.35674" lon="2.71271">
        <ele>122</ele>
        <time>2015-10-27T10:34:43Z</time>
      </trkpt>
      <trkpt lat="48.35671" lon="2.71288">
        <ele>121</ele>
        <time>2015-10-27T10:35:05Z</time>
      </trkpt>
      <trkpt lat="48.35662" lon="2.71293">
        <ele>119</ele>
        <time>2015-10-27T10:35:23Z</time>
      </trkpt>
      <trkpt lat="48.35653" lon="2.71293">
        <ele>119</ele>
        <time>2015-10-27T10:35:38Z</time>
      </trkpt>
      <trkpt lat="48.35646" lon="2.71303">
        <ele>117</ele>
        <time>2015-10-27T10:35:48Z</time>
      </trkpt>
      <trkpt lat="48.35643" lon="2.71316">
        <ele>117</ele>
        <time>2015-10-27T10:35:59Z</time>
      </trkpt>
      <trkpt lat="48.35637" lon="2.71327">
        <ele>118</ele>
        <time>2015-10-27T10:36:15Z</time>
      </trkpt>
      <trkpt lat="48.3563" lon="2.71332">
        <ele>117</ele>
        <time>2015-10-27T10:36:28Z</time>
      </trkpt>
      <trkpt lat="48.35626" lon="2.71329">
        <ele>117</ele>
        <time>2015-10-27T10:36:36Z</time>
      </trkpt>
      <trkpt lat="48.35621" lon="2.71329">
        <ele>117</ele>
        <time>2015-10-27T10:36:42Z</time>
      </trkpt>
      <trkpt lat="48.35619" lon="2.71335">
        <ele>117</ele>
        <time>2015-10-27T10:36:52Z</time>
      </trkpt>
      <trkpt lat="48.35614" lon="2.71336">
        <ele>116</ele>
        <time>2015-10-27T10:37:04Z</time>
      </trkpt>
      <trkpt lat="48.35595" lon="2.71342">
        <ele>115</ele>
        <time>2015-10-27T10:37:26Z</time>
      </trkpt>
      <trkpt lat="48.35601" lon="2.71355">
        <ele>114</ele>
        <time>2015-10-27T10:37:40Z</time>
      </trkpt>
      <trkpt lat="48.35604" lon="2.71362">
        <ele>113</ele>
        <time>2015-10-27T10:37:53Z</time>
      </trkpt>
      <trkpt lat="48.35598" lon="2.71373">
        <ele>110</ele>
        <time>2015-10-27T10:38:07Z</time>
      </trkpt>
      <trkpt lat="48.35591" lon="2.71401">
        <ele>109</ele>
        <time>2015-10-27T10:38:31Z</time>
      </trkpt>
      <trkpt lat="48.35585" lon="2.71411">
        <ele>108</ele>
        <time>2015-10-27T10:38:45Z</time>
      </trkpt>
      <trkpt lat="48.35577" lon="2.71417">
        <ele>106</ele>
        <time>2015-10-27T10:38:58Z</time>
      </trkpt>
      <trkpt lat="48.35573" lon="2.71425">
        <ele>106</ele>
        <time>2015-10-27T10:39:10Z</time>
      </trkpt>
      <trkpt lat="48.35569" lon="2.71425">
        <ele>105</ele>
        <time>2015-10-27T10:39:15Z</time>
      </trkpt>
      <trkpt lat="48.35564" lon="2.71423">
        <ele>105</ele>
        <time>2015-10-27T10:39:20Z</time>
      </trkpt>
      <trkpt lat="48.35559" lon="2.71425">
        <ele>105</ele>
        <time>2015-10-27T10:39:25Z</time>
      </trkpt>
      <trkpt lat="48.35551" lon="2.71434">
        <ele>105</ele>
        <time>2015-10-27T10:39:34Z</time>
      </trkpt>
      <trkpt lat="48.35536" lon="2.71454">
        <ele>105</ele>
        <time>2015-10-27T10:39:54Z</time>
      </trkpt>
      <trkpt lat="48.35532" lon="2.71468">
        <ele>104</ele>
        <time>2015-10-27T10:40:07Z</time>
      </trkpt>
      <trkpt lat="48.35524" lon="2.71476">
        <ele>102</ele>
        <time>2015-10-27T10:40:18Z</time>
      </trkpt>
      <trkpt lat="48.35516" lon="2.7148">
        <ele>102</ele>
        <time>2015-10-27T10:40:30Z</time>
      </trkpt>
      <trkpt lat="48.35506" lon="2.71478">
        <ele>102</ele>
        <time>2015-10-27T10:40:43Z</time>
      </trkpt>
      <trkpt lat="48.35497" lon="2.71478">
        <ele>102</ele>
        <time>2015-10-27T10:41:01Z</time>
      </trkpt>
      <trkpt lat="48.35488" lon="2.71471">
        <ele>100</ele>
        <time>2015-10-27T10:41:22Z</time>
      </trkpt>
      <trkpt lat="48.35481" lon="2.71461">
        <ele>99</ele>
        <time>2015-10-27T10:41:33Z</time>
      </trkpt>
      <trkpt lat="48.35471" lon="2.71458">
        <ele>98</ele>
        <time>2015-10-27T10:41:44Z</time>
      </trkpt>
      <trkpt lat="48.35455" lon="2.71473">
        <ele>96</ele>
        <time>2015-10-27T10:42:06Z</time>
      </trkpt>
      <trkpt lat="48.35431" lon="2.715">
        <ele>95</ele>
        <time>2015-10-27T10:42:30Z</time>
      </trkpt>
      <trkpt lat="48.35401" lon="2.71514">
        <ele>92</ele>
        <time>2015-10-27T10:43:06Z</time>
      </trkpt>
      <trkpt lat="48.35402" lon="2.7151">
        <ele>92</ele>
        <time>2015-10-27T10:43:16Z</time>
      </trkpt>
      <trkpt lat="48.35406" lon="2.71512">
        <ele>92</ele>
        <time>2015-10-27T10:43:31Z</time>
      </trkpt>
      <trkpt lat="48.35409" lon="2.71518">
        <ele>92</ele>
        <time>2015-10-27T10:43:36Z</time>
      </trkpt>
      <trkpt lat="48.35413" lon="2.71559">
        <ele>85</ele>
        <time>2015-10-27T10:43:57Z</time>
      </trkpt>
      <trkpt lat="48.35422" lon="2.71584">
        <ele>84</ele>
        <time>2015-10-27T10:44:14Z</time>
      </trkpt>
      <trkpt lat="48.35426" lon="2.71597">
        <ele>84</ele>
        <time>2015-10-27T10:44:23Z</time>
      </trkpt>
      <trkpt lat="48.35443" lon="2.71623">
        <ele>86</ele>
        <time>2015-10-27T10:44:47Z</time>
      </trkpt>
      <trkpt lat="48.35447" lon="2.71636">
        <ele>85</ele>
        <time>2015-10-27T10:44:57Z</time>
      </trkpt>
      <trkpt lat="48.3545" lon="2.71643">
        <ele>85</ele>
        <time>2015-10-27T10:45:03Z</time>
      </trkpt>
      <trkpt lat="48.35451" lon="2.71649">
        <ele>86</ele>
        <time>2015-10-27T10:45:07Z</time>
      </trkpt>
      <trkpt lat="48.35454" lon="2.71663">
        <ele>85</ele>
        <time>2015-10-27T10:45:16Z</time>
      </trkpt>
      <trkpt lat="48.35454" lon="2.71671">
        <ele>85</ele>
        <time>2015-10-27T10:45:21Z</time>
      </trkpt>
      <trkpt lat="48.35456" lon="2.71677">
        <ele>85</ele>
        <time>2015-10-27T10:45:26Z</time>
      </trkpt>
      <trkpt lat="48.35457" lon="2.71685">
        <ele>85</ele>
        <time>2015-10-27T10:45:31Z</time>
      </trkpt>
      <trkpt lat="48.35461" lon="2.71691">
        <ele>85</ele>
        <time>2015-10-27T10:45:36Z</time>
      </trkpt>
      <trkpt lat="48.35461" lon="2.71699">
        <ele>84</ele>
        <time>2015-10-27T10:45:39Z</time>
      </trkpt>
      <trkpt lat="48.35461" lon="2.71727">
        <ele>82</ele>
        <time>2015-10-27T10:45:59Z</time>
      </trkpt>
    </trkseg>
  </trk>
</gpx>